createdAt,value
2022-09-14T00:01:34.641Z,0.30
2022-09-14T00:04:13.421Z,0.20
2022-09-14T00:06:40.780Z,0.20
2022-09-14T00:09:08.713Z,0.20
2022-09-14T00:11:37.157Z,0.30
2022-09-14T00:14:05.316Z,0.32
2022-09-14T00:16:38.373Z,0.20
2022-09-14T00:19:16.625Z,0.20
2022-09-14T00:21:43.729Z,0.20
2022-09-14T00:24:11.971Z,0.30
2022-09-14T00:26:38.957Z,0.20
2022-09-14T00:29:10.289Z,0.30
2022-09-14T00:31:38.836Z,0.30
2022-09-14T00:34:10.464Z,0.20
2022-09-14T00:36:43.652Z,0.40
2022-09-14T00:39:11.296Z,0.30
2022-09-14T00:41:40.904Z,0.10
2022-09-14T00:44:27.920Z,0.40
2022-09-14T00:47:01.036Z,0.20
2022-09-14T00:49:31.501Z,0.20
2022-09-14T00:52:26.553Z,0.17
2022-09-14T00:55:04.189Z,0.20
2022-09-14T00:57:36.818Z,0.28
2022-09-14T01:00:06.706Z,0.30
2022-09-14T01:02:34.938Z,0.28
2022-09-14T01:05:02.578Z,0.20
2022-09-14T01:07:47.990Z,0.40
2022-09-14T01:10:36.661Z,0.40
2022-09-14T01:13:28.552Z,0.50
2022-09-14T01:16:33.295Z,0.20
2022-09-14T01:19:14.618Z,0.30
2022-09-14T01:21:44.315Z,0.20
2022-09-14T01:24:28.507Z,0.32
2022-09-14T01:27:01.505Z,0.20
2022-09-14T01:29:40.315Z,0.20
2022-09-14T01:32:21.571Z,0.20
2022-09-14T01:34:57.662Z,0.20
2022-09-14T01:37:45.713Z,0.20
2022-09-14T01:40:21.503Z,0.20
2022-09-14T01:42:54.341Z,0.15
2022-09-14T01:45:24.274Z,0.28
2022-09-14T01:48:07.615Z,0.22
2022-09-14T01:50:40.966Z,0.20
2022-09-14T01:53:34.879Z,0.20
2022-09-14T01:56:23.206Z,0.30
2022-09-14T01:59:05.246Z,0.10
2022-09-14T02:01:37.916Z,0.20
2022-09-14T02:04:09.533Z,0.20
2022-09-14T02:06:42.566Z,0.20
2022-09-14T02:09:13.356Z,0.10
2022-09-14T02:11:40.729Z,0.10
2022-09-14T02:14:08.038Z,0.20
2022-09-14T02:16:35.960Z,0.10
2022-09-14T02:19:03.667Z,0.10
2022-09-14T02:21:33.553Z,0.10
2022-09-14T02:24:01.396Z,0.10
2022-09-14T02:26:29.229Z,0.20
2022-09-14T02:28:57.346Z,0.20
2022-09-14T02:31:35.388Z,0.10
2022-09-14T02:34:08.193Z,0.17
2022-09-14T02:37:10.678Z,0.30
2022-09-14T02:40:05.340Z,0.10
2022-09-14T02:42:37.524Z,0.20
2022-09-14T02:45:24.198Z,0.20
2022-09-14T02:48:06.206Z,0.10
2022-09-14T02:50:57.422Z,0.20
2022-09-14T02:53:35.526Z,0.17
2022-09-14T02:56:08.414Z,0.30
2022-09-14T02:58:38.656Z,0.13
2022-09-14T03:01:07.530Z,0.10
2022-09-14T03:03:35.798Z,0.20
2022-09-14T03:06:03.774Z,0.10
2022-09-14T03:08:30.949Z,0.10
2022-09-14T03:11:00.050Z,0.30
2022-09-14T03:13:27.160Z,0.20
2022-09-14T03:15:54.400Z,0.20
2022-09-14T03:18:21.585Z,0.20
2022-09-14T03:20:48.653Z,0.20
2022-09-14T03:23:15.757Z,0.20
2022-09-14T03:25:44.383Z,0.20
2022-09-14T03:28:12.539Z,0.20
2022-09-14T03:30:40.032Z,0.20
2022-09-14T03:33:07.113Z,0.30
2022-09-14T03:35:34.124Z,0.20
2022-09-14T03:38:03.445Z,0.20
2022-09-14T03:40:30.837Z,0.15
2022-09-14T03:42:58.164Z,0.10
2022-09-14T03:45:25.504Z,0.30
2022-09-14T03:47:52.383Z,0.30
2022-09-14T03:50:20.033Z,0.10
2022-09-14T03:52:47.632Z,0.20
2022-09-14T03:55:14.886Z,0.20
2022-09-14T03:57:41.945Z,0.20
2022-09-14T04:00:10.357Z,0.10
2022-09-14T04:02:41.039Z,0.30
2022-09-14T04:05:08.439Z,0.20
2022-09-14T04:07:36.028Z,0.30
2022-09-14T04:10:04.346Z,0.10
2022-09-14T04:12:35.928Z,0.20
2022-09-14T04:15:03.673Z,0.20
2022-09-14T04:17:30.655Z,0.10
2022-09-14T04:19:57.737Z,0.30
2022-09-14T04:22:24.783Z,0.13
2022-09-14T04:24:52.180Z,0.10
2022-09-14T04:27:19.189Z,0.10
2022-09-14T04:29:51.289Z,0.10
2022-09-14T04:32:18.214Z,0.20
2022-09-14T04:34:45.189Z,0.28
2022-09-14T04:37:12.090Z,0.20
2022-09-14T04:39:38.953Z,0.10
2022-09-14T04:42:06.380Z,0.10
2022-09-14T04:44:33.521Z,0.20
2022-09-14T04:47:00.620Z,0.20
2022-09-14T04:49:27.636Z,0.20
2022-09-14T04:51:54.615Z,0.10
2022-09-14T04:54:22.193Z,0.10
2022-09-14T04:56:49.163Z,0.20
2022-09-14T04:59:18.606Z,0.10
2022-09-14T05:01:48.027Z,0.10
2022-09-14T05:04:15.475Z,0.20
2022-09-14T05:06:44.499Z,0.10
2022-09-14T05:09:17.766Z,0.20
2022-09-14T05:11:45.331Z,0.10
2022-09-14T05:14:15.025Z,0.10
2022-09-14T05:16:43.724Z,0.22
2022-09-14T05:19:19.595Z,0.17
2022-09-14T05:21:47.746Z,0.10
2022-09-14T05:24:17.367Z,0.20
2022-09-14T05:26:46.858Z,0.20
2022-09-14T05:29:16.692Z,0.20
2022-09-14T05:31:44.742Z,0.10
2022-09-14T05:34:12.475Z,0.30
2022-09-14T05:36:40.272Z,0.20
2022-09-14T05:39:08.528Z,0.20
2022-09-14T05:41:36.007Z,0.20
2022-09-14T05:44:03.266Z,0.20
2022-09-14T05:46:30.390Z,0.10
2022-09-14T05:48:57.392Z,0.20
2022-09-14T05:51:25.723Z,0.30
2022-09-14T05:54:00.171Z,0.20
2022-09-14T05:56:29.827Z,0.20
2022-09-14T05:58:56.855Z,0.17
2022-09-14T06:01:26.968Z,0.20
2022-09-14T06:03:55.349Z,0.20
2022-09-14T06:06:23.928Z,0.40
2022-09-14T06:08:52.765Z,0.28
2022-09-14T06:11:26.313Z,0.20
2022-09-14T06:13:55.200Z,0.20
2022-09-14T06:16:25.252Z,0.30
2022-09-14T06:18:53.724Z,0.30
2022-09-14T06:21:24.989Z,0.50
2022-09-14T06:23:52.150Z,0.10
2022-09-14T06:26:19.196Z,0.10
2022-09-14T06:28:46.215Z,0.20
2022-09-14T06:31:14.724Z,0.25
2022-09-14T06:33:45.905Z,0.20
2022-09-14T06:36:16.017Z,0.28
2022-09-14T06:38:43.257Z,0.20
2022-09-14T06:41:12.729Z,0.15
2022-09-14T06:43:41.920Z,0.10
2022-09-14T06:46:19.175Z,0.50
2022-09-14T06:48:53.137Z,0.30
2022-09-14T06:51:24.312Z,0.40
2022-09-14T06:53:52.425Z,0.30
2022-09-14T06:56:19.786Z,0.22
2022-09-14T06:58:46.939Z,0.20
2022-09-14T07:01:15.897Z,0.30
2022-09-14T07:03:44.182Z,0.30
2022-09-14T07:06:18.052Z,0.30
2022-09-14T07:08:45.374Z,0.20
2022-09-14T07:11:14.810Z,0.50
2022-09-14T07:13:41.880Z,0.30
2022-09-14T07:16:09.087Z,0.28
2022-09-14T07:18:36.520Z,0.28
2022-09-14T07:21:12.293Z,0.20
2022-09-14T07:23:41.804Z,0.40
2022-09-14T07:26:20.774Z,0.30
2022-09-14T07:28:51.408Z,0.40
2022-09-14T07:31:28.101Z,0.30
2022-09-14T07:33:58.864Z,0.25
2022-09-14T07:36:29.499Z,0.30
2022-09-14T07:39:05.082Z,0.25
2022-09-14T07:41:35.892Z,0.25
2022-09-14T07:44:08.308Z,0.30
2022-09-14T07:46:43.326Z,0.47
2022-09-14T07:49:11.471Z,0.28
2022-09-14T07:51:39.410Z,0.28
2022-09-14T07:54:08.163Z,0.30
2022-09-14T07:56:38.652Z,0.40
2022-09-14T08:01:55.388Z,0.50
2022-09-14T08:04:22.408Z,0.40
2022-09-14T08:06:49.332Z,0.55
2022-09-14T08:09:16.384Z,0.40
2022-09-14T08:11:43.359Z,0.32
2022-09-14T08:14:12.927Z,0.32
2022-09-14T08:16:40.972Z,0.35
2022-09-14T08:19:13.064Z,0.30
2022-09-14T08:21:45.650Z,0.30
2022-09-14T08:24:21.075Z,0.20
2022-09-14T08:26:49.280Z,0.20
2022-09-14T08:29:17.720Z,0.28
2022-09-14T08:31:46.233Z,0.20
2022-09-14T08:34:14.988Z,0.28
2022-09-14T08:36:43.097Z,0.20
2022-09-14T08:39:11.547Z,0.20
2022-09-14T08:41:48.797Z,0.30
2022-09-14T08:44:22.341Z,0.40
2022-09-14T08:47:00.578Z,0.50
2022-09-14T08:49:52.009Z,0.25
2022-09-14T08:52:31.557Z,0.40
2022-09-14T08:55:01.722Z,0.20
2022-09-14T08:57:41.775Z,0.20
2022-09-14T09:00:15.529Z,0.35
2022-09-14T09:03:21.106Z,0.20
2022-09-14T09:05:54.765Z,0.20
2022-09-14T09:08:34.824Z,0.20
2022-09-14T09:11:05.756Z,0.10
2022-09-14T09:13:37.284Z,0.15
2022-09-14T09:16:09.893Z,0.30
2022-09-14T09:19:02.246Z,0.20
2022-09-14T09:21:38.969Z,0.13
2022-09-14T09:24:21.707Z,0.20
2022-09-14T09:26:51.761Z,0.20
2022-09-14T09:29:21.551Z,0.10
2022-09-14T09:32:12.837Z,0.20
2022-09-14T09:35:02.210Z,0.20
2022-09-14T09:37:42.713Z,0.20
2022-09-14T09:40:36.359Z,0.30
2022-09-14T09:43:05.733Z,0.20
2022-09-14T09:45:48.675Z,0.30
2022-09-14T09:48:17.875Z,0.30
2022-09-14T09:50:52.678Z,0.20
2022-09-14T09:53:23.439Z,0.20
2022-09-14T09:55:53.329Z,0.22
2022-09-14T09:58:27.448Z,0.20
2022-09-14T10:01:21.182Z,0.30
2022-09-14T10:04:24.848Z,0.20
2022-09-14T10:06:55.963Z,0.22
2022-09-14T10:09:27.205Z,0.30
2022-09-14T10:12:02.777Z,0.30
2022-09-14T10:14:38.174Z,0.57
2022-09-14T10:17:18.885Z,0.20
2022-09-14T10:19:54.217Z,0.20
2022-09-14T10:22:32.842Z,0.20
2022-09-14T10:25:21.348Z,0.22
2022-09-14T10:27:54.462Z,0.52
2022-09-14T10:30:49.399Z,0.30
2022-09-14T10:33:21.024Z,0.20
2022-09-14T10:36:15.631Z,0.10
2022-09-14T10:39:07.664Z,0.10
2022-09-14T10:41:54.991Z,0.30
2022-09-14T10:44:42.022Z,0.28
2022-09-14T10:47:36.799Z,0.40
2022-09-14T10:50:06.928Z,0.43
2022-09-14T10:52:39.778Z,0.22
2022-09-14T10:55:31.977Z,0.50
2022-09-14T10:58:31.009Z,0.45
2022-09-14T11:01:03.650Z,0.55
2022-09-14T11:03:30.714Z,0.32
2022-09-14T11:06:29.914Z,0.50
2022-09-14T11:09:07.561Z,0.63
2022-09-14T11:11:40.494Z,0.70
2022-09-14T11:14:36.695Z,0.50
2022-09-14T11:17:29.635Z,0.70
2022-09-14T11:20:08.843Z,0.80
2022-09-14T11:22:52.069Z,0.50
2022-09-14T11:25:27.751Z,0.40
2022-09-14T11:28:06.062Z,0.50
2022-09-14T11:30:50.492Z,0.60
2022-09-14T11:33:26.904Z,0.60
2022-09-14T11:36:19.363Z,0.63
2022-09-14T11:38:52.351Z,0.70
2022-09-14T11:41:43.064Z,1.10
2022-09-14T11:44:44.969Z,0.57
2022-09-14T11:47:23.720Z,0.60
2022-09-14T11:50:12.545Z,0.52
2022-09-14T11:52:42.903Z,0.60
2022-09-14T11:55:15.950Z,0.80
2022-09-14T11:57:45.909Z,0.70
2022-09-14T12:00:45.643Z,0.98
2022-09-14T12:03:15.959Z,0.80
2022-09-14T12:05:44.943Z,0.73
2022-09-14T12:08:24.287Z,0.60
2022-09-14T12:11:03.740Z,0.80
2022-09-14T12:13:31.408Z,0.70
2022-09-14T12:16:04.571Z,0.70
2022-09-14T12:18:33.201Z,0.50
2022-09-14T12:21:07.309Z,0.52
2022-09-14T12:23:42.082Z,0.70
2022-09-14T12:26:12.235Z,0.80
2022-09-14T12:28:52.468Z,0.60
2022-09-14T12:31:44.490Z,0.70
2022-09-14T12:34:25.228Z,0.60
2022-09-14T12:36:52.137Z,0.80
2022-09-14T12:39:24.076Z,0.70
2022-09-14T12:41:50.967Z,0.80
2022-09-14T12:44:41.157Z,0.70
2022-09-14T12:47:50.016Z,0.50
2022-09-14T12:50:20.428Z,0.80
2022-09-14T12:52:56.579Z,0.60
2022-09-14T12:55:45.093Z,0.60
2022-09-14T12:58:38.078Z,0.60
2022-09-14T13:01:28.244Z,0.50
2022-09-14T13:03:57.825Z,0.68
2022-09-14T13:06:33.292Z,0.52
2022-09-14T13:09:01.624Z,0.70
2022-09-14T13:11:40.442Z,0.50
2022-09-14T13:14:12.591Z,0.50
2022-09-14T13:16:46.678Z,0.40
2022-09-14T13:19:31.467Z,0.70
2022-09-14T13:22:01.539Z,0.50
2022-09-14T13:24:38.795Z,0.50
2022-09-14T13:27:11.904Z,0.40
2022-09-14T13:29:39.923Z,0.30
2022-09-14T13:32:07.141Z,0.30
2022-09-14T13:34:37.096Z,0.20
2022-09-14T13:37:05.577Z,0.20
2022-09-14T13:39:35.739Z,0.40
2022-09-14T13:42:03.541Z,0.30
2022-09-14T13:44:49.869Z,0.28
2022-09-14T13:47:20.437Z,0.30
2022-09-14T13:49:49.444Z,0.40
2022-09-14T13:53:01.414Z,0.38
2022-09-14T13:55:42.924Z,0.30
2022-09-14T13:58:09.975Z,0.30
2022-09-14T14:00:57.254Z,0.32
2022-09-14T14:03:27.077Z,0.20
2022-09-14T14:05:54.588Z,1.13
2022-09-14T14:08:38.803Z,0.70
2022-09-14T14:11:07.969Z,0.50
2022-09-14T14:13:37.546Z,0.30
2022-09-14T14:16:22.099Z,0.40
2022-09-14T14:18:57.257Z,0.40
2022-09-14T14:21:27.937Z,0.30
2022-09-14T14:25:02.117Z,0.30
2022-09-14T14:27:46.253Z,0.20
2022-09-14T14:30:19.978Z,0.30
2022-09-14T14:32:57.990Z,0.32
2022-09-14T14:35:32.042Z,0.28
2022-09-14T14:38:02.552Z,0.25
2022-09-14T14:40:29.768Z,0.20
2022-09-14T14:42:58.759Z,0.28
2022-09-14T14:45:27.468Z,0.30
2022-09-14T14:47:56.227Z,0.20
2022-09-14T14:50:26.343Z,0.20
2022-09-14T14:52:53.751Z,0.20
2022-09-14T14:55:21.568Z,0.20
2022-09-14T14:57:50.188Z,0.15
2022-09-14T15:00:21.082Z,0.20
2022-09-14T15:02:51.638Z,0.17
2022-09-14T15:05:19.473Z,0.10
2022-09-14T15:07:47.705Z,0.20
2022-09-14T15:10:16.544Z,0.10
2022-09-14T15:12:43.999Z,0.20
2022-09-14T15:15:14.451Z,0.20
2022-09-14T15:17:41.683Z,0.10
2022-09-14T15:20:09.642Z,0.30
2022-09-14T15:22:37.200Z,0.20
2022-09-14T15:25:05.445Z,0.30
2022-09-14T15:27:33.147Z,0.20
2022-09-14T15:30:02.965Z,0.20
2022-09-14T15:32:30.974Z,0.20
2022-09-14T15:34:59.815Z,0.30
2022-09-14T15:37:27.117Z,0.20
2022-09-14T15:39:54.456Z,0.22
2022-09-14T15:42:21.825Z,0.20
2022-09-14T15:44:51.582Z,0.20
2022-09-14T15:47:21.567Z,0.30
2022-09-14T15:49:53.549Z,0.10
2022-09-14T15:52:20.807Z,0.15
2022-09-14T15:54:50.637Z,0.20
2022-09-14T15:57:17.927Z,0.35
2022-09-14T15:59:45.086Z,0.25
2022-09-14T16:02:12.633Z,0.20
2022-09-14T16:04:39.874Z,0.38
2022-09-14T16:07:10.042Z,0.20
2022-09-14T16:09:38.965Z,0.20
2022-09-14T16:12:07.927Z,0.10
2022-09-14T16:14:38.366Z,0.50
2022-09-14T16:17:06.683Z,0.10
2022-09-14T16:19:33.694Z,0.13
2022-09-14T16:22:00.892Z,0.22
2022-09-14T16:24:28.300Z,0.40
2022-09-14T16:26:57.804Z,0.20
2022-09-14T16:29:25.977Z,0.30
2022-09-14T16:31:56.411Z,0.40
2022-09-14T16:34:28.889Z,0.20
2022-09-14T16:36:58.894Z,0.40
2022-09-14T16:39:29.743Z,0.40
2022-09-14T16:41:57.436Z,0.20
2022-09-14T16:44:26.356Z,0.30
2022-09-14T16:46:54.957Z,0.50
2022-09-14T16:49:26.566Z,0.40
2022-09-14T16:51:55.814Z,0.20
2022-09-14T16:54:24.498Z,0.38
2022-09-14T16:56:52.455Z,0.38
2022-09-14T16:59:27.497Z,0.35
2022-09-14T17:01:57.622Z,0.30
2022-09-14T17:04:25.325Z,0.40
2022-09-14T17:06:53.371Z,0.57
2022-09-14T17:09:27.921Z,0.40
2022-09-14T17:11:56.664Z,0.40
2022-09-14T17:14:30.977Z,0.40
2022-09-14T17:16:58.837Z,0.50
2022-09-14T17:19:27.021Z,0.40
2022-09-14T17:21:54.530Z,0.30
2022-09-14T17:24:25.097Z,0.73
2022-09-14T17:26:52.384Z,0.50
2022-09-14T17:29:19.545Z,0.70
2022-09-14T17:31:46.818Z,0.60
2022-09-14T17:34:17.022Z,0.50
2022-09-14T17:36:45.626Z,0.60
2022-09-14T17:39:14.396Z,0.50
2022-09-14T17:41:42.883Z,0.50
2022-09-14T17:44:12.694Z,0.98
2022-09-14T17:46:48.232Z,0.50
2022-09-14T17:49:21.172Z,0.60
2022-09-14T17:51:51.357Z,0.52
2022-09-14T17:57:04.594Z,0.50
2022-09-14T17:59:31.582Z,0.50
2022-09-14T18:01:58.704Z,0.60
2022-09-14T18:04:25.850Z,0.50
2022-09-14T18:06:53.366Z,0.40
2022-09-14T18:09:24.182Z,0.30
2022-09-14T18:11:54.659Z,0.40
2022-09-14T18:14:21.847Z,0.70
2022-09-14T18:17:09.138Z,0.80
2022-09-14T18:19:36.278Z,0.55
2022-09-14T18:22:03.287Z,0.63
2022-09-14T18:24:31.031Z,0.73
2022-09-14T18:26:59.200Z,0.70
2022-09-14T18:29:26.828Z,0.80
2022-09-14T18:31:54.191Z,1.15
2022-09-14T18:34:22.264Z,0.60
2022-09-14T18:36:52.214Z,0.70
2022-09-14T18:39:19.209Z,0.73
2022-09-14T18:41:48.111Z,0.77
2022-09-14T18:44:15.203Z,0.80
2022-09-14T18:46:49.771Z,0.90
2022-09-14T18:49:21.803Z,1.00
2022-09-14T18:51:51.459Z,0.85
2022-09-14T18:54:18.861Z,0.95
2022-09-14T18:56:46.031Z,0.70
2022-09-14T18:59:15.362Z,0.70
2022-09-14T19:01:48.137Z,0.70
2022-09-14T19:04:15.945Z,0.90
2022-09-14T19:07:13.575Z,0.80
2022-09-14T19:09:44.841Z,0.80
2022-09-14T19:12:12.078Z,0.60
2022-09-14T19:14:39.805Z,0.80
2022-09-14T19:17:07.667Z,0.70
2022-09-14T19:19:35.735Z,0.70
2022-09-14T19:22:02.854Z,0.88
2022-09-14T19:24:37.411Z,0.80
2022-09-14T19:27:06.924Z,1.30
2022-09-14T19:29:35.457Z,0.88
2022-09-14T19:32:06.962Z,1.08
2022-09-14T19:34:34.808Z,0.70
2022-09-14T19:37:01.874Z,0.98
2022-09-14T19:39:30.046Z,0.60
2022-09-14T19:41:57.348Z,0.80
2022-09-14T19:44:24.894Z,0.77
2022-09-14T19:46:52.397Z,0.63
2022-09-14T19:49:24.171Z,0.75
2022-09-14T19:51:52.262Z,0.70
2022-09-14T19:54:19.369Z,0.80
2022-09-14T19:56:46.990Z,0.88
2022-09-14T19:59:14.412Z,0.93
2022-09-14T20:01:41.948Z,1.20
2022-09-14T20:04:10.559Z,0.65
2022-09-14T20:06:40.677Z,0.90
2022-09-14T20:09:13.466Z,1.00
2022-09-14T20:11:49.631Z,0.90
2022-09-14T20:14:22.515Z,0.88
2022-09-14T20:16:58.897Z,1.58
2022-09-14T20:19:28.283Z,1.00
2022-09-14T20:21:55.875Z,0.93
2022-09-14T20:24:27.236Z,1.40
2022-09-14T20:26:56.993Z,0.80
2022-09-14T20:29:30.184Z,1.00
2022-09-14T20:32:00.602Z,0.82
2022-09-14T20:34:29.218Z,0.98
2022-09-14T20:36:57.085Z,0.82
2022-09-14T20:39:24.523Z,0.73
2022-09-14T20:41:51.481Z,0.90
2022-09-14T20:44:23.245Z,1.33
2022-09-14T20:46:51.506Z,1.10
2022-09-14T20:49:21.360Z,1.23
2022-09-14T20:51:55.126Z,1.13
2022-09-14T20:54:22.567Z,0.98
2022-09-14T20:56:49.669Z,1.30
2022-09-14T20:59:19.057Z,1.52
2022-09-14T21:01:49.525Z,1.10
2022-09-14T21:04:23.043Z,1.00
2022-09-14T21:06:52.687Z,1.20
2022-09-14T21:09:24.621Z,1.33
2022-09-14T21:11:52.925Z,1.17
2022-09-14T21:14:21.274Z,1.70
2022-09-14T21:16:49.781Z,1.80
2022-09-14T21:19:23.070Z,1.20
2022-09-14T21:21:51.057Z,1.30
2022-09-14T21:24:22.974Z,1.50
2022-09-14T21:26:50.456Z,1.60
2022-09-14T21:29:23.038Z,1.45
2022-09-14T21:31:50.290Z,1.70
2022-09-14T21:34:17.643Z,1.50
2022-09-14T21:36:50.023Z,2.15
2022-09-14T21:39:23.297Z,1.73
2022-09-14T21:41:57.310Z,1.70
2022-09-14T21:44:32.263Z,1.77
2022-09-14T21:46:59.996Z,1.88
2022-09-14T21:49:26.966Z,2.10
2022-09-14T21:51:54.121Z,1.60
2022-09-14T21:54:21.580Z,2.05
2022-09-14T21:56:52.551Z,1.75
2022-09-14T21:59:21.782Z,1.67
2022-09-14T22:01:49.470Z,2.00
2022-09-14T22:04:19.456Z,1.90
2022-09-14T22:06:46.996Z,1.80
2022-09-14T22:09:17.371Z,2.13
2022-09-14T22:11:44.714Z,2.00
2022-09-14T22:14:14.782Z,1.75
2022-09-14T22:16:42.621Z,1.92
2022-09-14T22:19:15.387Z,2.17
2022-09-14T22:21:42.493Z,2.33
2022-09-14T22:24:13.646Z,2.00
2022-09-14T22:26:41.657Z,1.95
2022-09-14T22:29:10.210Z,2.33
2022-09-14T22:31:39.929Z,2.10
2022-09-14T22:34:07.675Z,2.05
2022-09-14T22:36:34.926Z,1.73
2022-09-14T22:39:03.181Z,2.15
2022-09-14T22:41:31.038Z,2.17
2022-09-14T22:43:58.013Z,1.95
2022-09-14T22:46:28.334Z,1.85
2022-09-14T22:48:55.459Z,2.47
2022-09-14T22:51:24.808Z,2.78
2022-09-14T22:53:52.895Z,2.60
2022-09-14T22:56:26.787Z,2.83
2022-09-14T22:58:54.284Z,2.42
2022-09-14T23:01:24.903Z,2.63
2022-09-14T23:04:03.449Z,2.58
2022-09-14T23:06:33.879Z,2.90
2022-09-14T23:09:02.773Z,2.90
2022-09-14T23:11:30.278Z,3.47
2022-09-14T23:13:58.937Z,3.10
2022-09-14T23:16:30.432Z,3.42
2022-09-14T23:18:59.893Z,3.22
2022-09-14T23:21:28.484Z,3.38
2022-09-14T23:24:02.725Z,3.80
2022-09-14T23:26:30.625Z,3.80
2022-09-14T23:29:00.584Z,4.03
2022-09-14T23:31:29.472Z,4.03
2022-09-14T23:33:58.696Z,3.58
2022-09-14T23:36:26.155Z,3.70
2022-09-14T23:38:53.796Z,3.45
2022-09-14T23:41:23.754Z,3.75
2022-09-14T23:43:51.808Z,3.40
2022-09-14T23:46:19.870Z,3.75
2022-09-14T23:48:49.284Z,3.53
2022-09-14T23:51:16.503Z,4.05
2022-09-14T23:53:46.726Z,3.45
2022-09-14T23:56:14.234Z,3.08
2022-09-14T23:58:42.138Z,3.47
